createdAt,value
2018-09-01T00:01:22.279Z,4.20
2018-09-01T00:06:26.768Z,3.90
2018-09-01T00:11:31.279Z,4.70
2018-09-01T00:16:35.612Z,5.00
2018-09-01T00:21:39.952Z,4.53
2018-09-01T00:26:44.307Z,4.80
2018-09-01T00:31:48.669Z,4.57
2018-09-01T00:36:53.085Z,4.13
2018-09-01T00:41:57.447Z,4.10
2018-09-01T00:47:02.026Z,4.13
2018-09-01T00:52:06.508Z,4.60
2018-09-01T00:57:10.952Z,4.00
2018-09-01T01:02:15.390Z,4.20
2018-09-01T01:07:19.761Z,3.80
2018-09-01T01:12:24.182Z,3.90
2018-09-01T01:17:28.612Z,4.00
2018-09-01T01:22:33.122Z,3.70
2018-09-01T01:27:38.379Z,4.07
2018-09-01T01:32:42.764Z,4.27
2018-09-01T01:37:47.195Z,3.97
2018-09-01T01:42:51.631Z,3.40
2018-09-01T01:47:55.927Z,3.67
2018-09-01T01:53:00.566Z,3.20
2018-09-01T01:58:05.175Z,3.90
2018-09-01T02:03:09.545Z,3.90
2018-09-01T02:08:13.960Z,4.37
2018-09-01T02:13:18.314Z,4.43
2018-09-01T02:18:22.684Z,3.90
2018-09-01T02:23:27.775Z,4.10
2018-09-01T02:28:32.161Z,4.13
2018-09-01T02:33:36.550Z,4.23
2018-09-01T02:38:40.944Z,4.60
2018-09-01T02:43:45.271Z,4.87
2018-09-01T02:48:49.608Z,4.23
2018-09-01T02:53:53.953Z,5.40
2018-09-01T02:58:58.310Z,5.40
2018-09-01T03:04:02.711Z,4.63
2018-09-01T03:09:08.392Z,5.37
2018-09-01T03:14:12.652Z,5.57
2018-09-01T03:19:16.922Z,5.53
2018-09-01T03:24:21.250Z,5.93
2018-09-01T03:29:25.775Z,5.90
2018-09-01T03:34:30.198Z,5.77
2018-09-01T03:39:34.651Z,5.90
2018-09-01T03:44:39.087Z,5.93
2018-09-01T03:49:43.517Z,5.60
2018-09-01T03:54:47.876Z,5.73
2018-09-01T03:59:52.210Z,6.13
2018-09-01T04:04:56.566Z,6.37
2018-09-01T04:10:00.955Z,6.43
2018-09-01T04:15:05.644Z,6.50
2018-09-01T04:20:10.110Z,7.50
2018-09-01T04:25:14.435Z,7.23
2018-09-01T04:30:18.860Z,7.00
2018-09-01T04:35:23.256Z,7.57
2018-09-01T04:40:27.664Z,7.63
2018-09-01T04:45:32.185Z,7.87
2018-09-01T04:50:36.564Z,7.90
2018-09-01T04:55:40.948Z,7.20
2018-09-01T05:00:46.519Z,7.50
2018-09-01T05:05:51.144Z,7.33
2018-09-01T05:10:56.187Z,7.80
2018-09-01T05:16:00.685Z,7.83
2018-09-01T05:21:04.993Z,8.10
2018-09-01T05:26:10.114Z,7.93
2018-09-01T05:31:14.452Z,7.90
2018-09-01T05:36:18.896Z,7.83
2018-09-01T05:41:23.225Z,7.80
2018-09-01T05:46:27.568Z,7.90
2018-09-01T05:51:32.469Z,8.30
2018-09-01T05:56:36.875Z,7.83
2018-09-01T06:01:41.938Z,7.87
2018-09-01T06:06:46.402Z,8.07
2018-09-01T06:11:50.805Z,7.57
2018-09-01T06:16:55.250Z,8.50
2018-09-01T06:21:59.782Z,8.57
2018-09-01T06:27:11.801Z,7.80
2018-09-01T06:32:16.381Z,7.70
2018-09-01T06:37:20.722Z,7.03
2018-09-01T06:42:25.216Z,6.80
2018-09-01T06:47:29.657Z,6.17
2018-09-01T06:52:34.107Z,6.10
2018-09-01T06:57:39.188Z,6.40
2018-09-01T07:02:43.663Z,7.40
2018-09-01T07:07:48.257Z,7.60
2018-09-01T07:12:52.663Z,6.77
2018-09-01T07:17:57.164Z,7.03
2018-09-01T07:23:01.610Z,7.17
2018-09-01T07:28:06.096Z,6.83
2018-09-01T07:33:10.434Z,7.60
2018-09-01T07:38:15.406Z,6.73
2018-09-01T07:43:19.883Z,6.83
2018-09-01T07:48:24.323Z,7.30
2018-09-01T07:53:28.738Z,6.20
2018-09-01T07:58:33.123Z,5.70
2018-09-01T08:03:39.171Z,4.73
2018-09-01T08:08:43.532Z,5.93
2018-09-01T08:13:48.817Z,5.03
2018-09-01T08:18:53.159Z,4.67
2018-09-01T08:23:58.404Z,4.37
2018-09-01T08:29:02.810Z,4.47
2018-09-01T08:34:07.233Z,4.33
2018-09-01T08:39:12.067Z,3.83
2018-09-01T08:44:16.567Z,4.73
2018-09-01T08:49:21.068Z,4.50
2018-09-01T08:54:26.976Z,4.33
2018-09-01T08:59:31.514Z,3.53
2018-09-01T09:04:37.160Z,2.90
2018-09-01T09:09:41.938Z,3.00
2018-09-01T09:14:46.389Z,2.83
2018-09-01T09:19:50.850Z,3.17
2018-09-01T09:24:55.760Z,2.83
2018-09-01T09:30:00.249Z,2.30
2018-09-01T09:35:04.842Z,2.20
2018-09-01T09:40:09.273Z,2.07
2018-09-01T09:45:13.687Z,2.13
2018-09-01T09:50:18.540Z,2.10
2018-09-01T09:55:24.547Z,1.67
2018-09-01T10:00:34.456Z,1.57
2018-09-01T10:05:38.837Z,1.80
2018-09-01T10:10:43.239Z,1.77
2018-09-01T10:15:47.735Z,1.70
2018-09-01T10:20:52.242Z,1.63
2018-09-01T10:25:56.790Z,2.00
2018-09-01T10:31:01.115Z,1.60
2018-09-01T10:36:05.763Z,1.53
2018-09-01T10:41:10.138Z,1.23
2018-09-01T10:46:14.627Z,1.70
2018-09-01T10:51:18.908Z,1.70
2018-09-01T10:56:23.307Z,1.50
2018-09-01T11:01:27.594Z,1.23
2018-09-01T11:06:32.100Z,1.73
2018-09-01T11:11:36.544Z,1.07
2018-09-01T11:16:40.995Z,1.67
2018-09-01T11:21:45.927Z,1.50
2018-09-01T11:26:50.292Z,2.00
2018-09-01T11:31:54.726Z,1.57
2018-09-01T11:36:59.106Z,1.60
2018-09-01T11:42:03.616Z,1.80
2018-09-01T11:47:08.068Z,2.00
2018-09-01T11:52:12.541Z,1.60
2018-09-01T11:57:16.954Z,1.70
2018-09-01T12:02:21.350Z,1.30
2018-09-01T12:07:25.735Z,1.33
2018-09-01T12:12:30.077Z,1.70
2018-09-01T12:17:34.399Z,1.60
2018-09-01T12:22:38.806Z,2.17
2018-09-01T12:27:43.139Z,1.50
2018-09-01T12:32:47.650Z,1.77
2018-09-01T12:37:52.004Z,1.93
2018-09-01T12:42:56.525Z,1.70
2018-09-01T12:48:00.954Z,2.07
2018-09-01T12:53:05.434Z,1.60
2018-09-01T12:58:09.836Z,2.00
2018-09-01T13:03:14.273Z,1.43
2018-09-01T13:08:18.586Z,1.50
2018-09-01T13:13:23.618Z,1.83
2018-09-01T13:18:28.056Z,1.70
2018-09-01T13:23:33.027Z,1.90
2018-09-01T13:28:37.636Z,1.47
2018-09-01T13:33:42.066Z,1.80
2018-09-01T13:38:46.521Z,1.37
2018-09-01T13:43:50.940Z,1.50
2018-09-01T13:48:55.833Z,1.40
2018-09-01T13:54:00.242Z,1.57
2018-09-01T13:59:04.606Z,1.63
2018-09-01T14:04:08.925Z,1.50
2018-09-01T14:09:13.269Z,1.70
2018-09-01T14:14:17.640Z,1.43
2018-09-01T14:19:22.264Z,1.73
2018-09-01T14:24:26.709Z,1.63
2018-09-01T14:29:31.153Z,1.67
2018-09-01T14:34:35.603Z,1.47
2018-09-01T14:39:40.035Z,1.60
2018-09-01T14:44:44.392Z,1.77
2018-09-01T14:49:48.712Z,2.03
2018-09-01T14:54:53.045Z,1.70
2018-09-01T14:59:57.575Z,1.33
2018-09-01T15:05:01.862Z,1.53
2018-09-01T15:10:06.644Z,1.30
2018-09-01T15:15:11.120Z,1.50
2018-09-01T15:20:15.660Z,1.63
2018-09-01T15:25:20.048Z,1.70
2018-09-01T15:30:25.165Z,1.93
2018-09-01T15:35:29.713Z,1.73
2018-09-01T15:40:34.099Z,1.80
2018-09-01T15:45:38.479Z,1.87
2018-09-01T15:50:42.923Z,1.90
2018-09-01T15:55:47.241Z,1.93
2018-09-01T16:00:52.127Z,1.80
2018-09-01T16:05:56.572Z,2.33
2018-09-01T16:11:00.912Z,2.10
2018-09-01T16:16:05.278Z,1.90
2018-09-01T16:21:09.628Z,2.20
2018-09-01T16:26:14.238Z,2.30
2018-09-01T16:31:18.729Z,1.83
2018-09-01T16:36:23.232Z,2.10
2018-09-01T16:41:27.678Z,1.97
2018-09-01T16:46:32.002Z,1.80
2018-09-01T16:51:36.566Z,1.77
2018-09-01T16:56:40.991Z,2.10
2018-09-01T17:01:45.436Z,1.93
2018-09-01T17:06:49.887Z,1.73
2018-09-01T17:11:54.370Z,1.83
2018-09-01T17:16:58.795Z,1.97
2018-09-01T17:22:03.222Z,2.07
2018-09-01T17:27:07.561Z,1.97
2018-09-01T17:32:11.924Z,2.20
2018-09-01T17:37:16.440Z,2.87
2018-09-01T17:42:20.978Z,2.00
2018-09-01T17:47:25.424Z,2.27
2018-09-01T17:52:29.765Z,2.40
2018-09-01T17:57:34.189Z,1.83
2018-09-01T18:02:38.563Z,2.10
2018-09-01T18:07:42.886Z,2.60
2018-09-01T18:12:48.976Z,2.50
2018-09-01T18:17:53.510Z,2.00
2018-09-01T18:22:57.942Z,2.20
2018-09-01T18:28:02.393Z,2.03
2018-09-01T18:33:06.844Z,2.23
2018-09-01T18:38:11.184Z,2.40
2018-09-01T18:43:16.184Z,2.20
2018-09-01T18:48:20.683Z,2.10
2018-09-01T18:53:25.231Z,2.40
2018-09-01T18:58:29.668Z,2.63
2018-09-01T19:03:34.117Z,2.73
2018-09-01T19:08:38.447Z,2.83
2018-09-01T19:13:42.864Z,2.90
2018-09-01T19:18:47.232Z,3.87
2018-09-01T19:23:51.638Z,4.03
2018-09-01T19:28:56.129Z,3.53
2018-09-01T19:34:00.550Z,3.00
2018-09-01T19:39:06.767Z,2.90
2018-09-01T19:44:11.115Z,2.77
2018-09-01T19:49:15.537Z,2.73
2018-09-01T19:54:19.874Z,2.83
2018-09-01T19:59:24.395Z,2.63
2018-09-01T20:04:28.848Z,2.50
2018-09-01T20:09:33.292Z,2.37
2018-09-01T20:14:37.796Z,2.93
2018-09-01T20:19:42.174Z,3.30
2018-09-01T20:24:46.499Z,3.23
2018-09-01T20:29:50.891Z,3.23
2018-09-01T20:34:59.297Z,3.40
2018-09-01T20:40:03.651Z,3.20
2018-09-01T20:45:08.097Z,3.67
2018-09-01T20:50:12.442Z,3.90
2018-09-01T20:55:16.755Z,3.50
2018-09-01T21:00:21.180Z,3.50
2018-09-01T21:05:26.176Z,3.90
2018-09-01T21:10:30.516Z,3.50
2018-09-01T21:15:34.835Z,4.20
2018-09-01T21:20:39.195Z,3.57
2018-09-01T21:25:43.522Z,3.83
2018-09-01T21:30:48.063Z,4.07
2018-09-01T21:35:52.403Z,4.33
2018-09-01T21:40:56.667Z,4.23
2018-09-01T21:46:01.336Z,4.70
2018-09-01T21:51:05.939Z,4.70
2018-09-01T21:56:10.388Z,4.60
2018-09-01T22:01:19.840Z,4.77
2018-09-01T22:06:24.909Z,4.57
2018-09-01T22:11:29.339Z,5.60
2018-09-01T22:16:33.700Z,4.80
2018-09-01T22:21:38.027Z,5.30
2018-09-01T22:26:42.410Z,5.73
2018-09-01T22:31:46.870Z,5.50
2018-09-01T22:36:51.389Z,5.30
2018-09-01T22:41:55.924Z,4.83
2018-09-01T22:47:01.944Z,5.90
2018-09-01T22:52:06.395Z,5.90
2018-09-01T22:57:10.752Z,5.00
2018-09-01T23:02:16.179Z,5.37
2018-09-01T23:07:20.563Z,5.23
2018-09-01T23:12:24.813Z,5.77
2018-09-01T23:17:29.783Z,5.90
2018-09-01T23:22:34.124Z,5.07
2018-09-01T23:27:38.471Z,5.60
2018-09-01T23:32:42.795Z,5.93
2018-09-01T23:37:47.137Z,5.53
2018-09-01T23:42:51.572Z,5.37
2018-09-01T23:47:56.059Z,6.07
2018-09-01T23:53:00.551Z,5.93
2018-09-01T23:58:04.996Z,6.13
